Terminal Aerodrome Forecast
Issued by NWS Wilmington, OH

Home | Current Version | Previous Version | Text Only | Print | Product List | Glossary On
Versions: 1 2 3 4 5 6 7 8 9 10 11 12 13 14 15 16 17 18 19
213
FTUS41 KILN 270532
TAFILN
TAF
KILN 270532Z 2706/2806 VRB03KT P6SM VCSH SCT100
     FM271000 21006KT P6SM BKN025
     FM271500 27006KT P6SM BKN035
     FM280100 35004KT P6SM SCT080=

USA.gov is the U.S. government's official web portal to all federal, state and local government web resources and services.